createdAt,value
2023-01-10T00:01:09.433Z,77.90
2023-01-10T00:03:41.810Z,78.05
2023-01-10T00:06:14.250Z,77.87
2023-01-10T00:08:46.785Z,77.84
2023-01-10T00:11:36.707Z,77.92
2023-01-10T00:14:09.422Z,78.06
2023-01-10T00:16:42.828Z,78.11
2023-01-10T00:19:15.458Z,78.03
2023-01-10T00:21:48.106Z,78.11
2023-01-10T00:24:20.587Z,78.17
2023-01-10T00:26:54.477Z,78.26
2023-01-10T00:29:30.985Z,78.40
2023-01-10T00:32:03.639Z,78.40
2023-01-10T00:34:36.740Z,78.31
2023-01-10T00:37:09.209Z,78.21
2023-01-10T00:39:41.954Z,78.07
2023-01-10T00:42:32.159Z,77.83
2023-01-10T00:45:05.041Z,77.78
2023-01-10T00:47:37.533Z,77.81
2023-01-10T00:50:12.842Z,77.82
2023-01-10T00:52:45.711Z,77.93
2023-01-10T00:55:18.559Z,77.95
2023-01-10T00:57:50.954Z,78.12
2023-01-10T01:00:24.761Z,78.17
2023-01-10T01:02:58.971Z,78.10
2023-01-10T01:05:31.912Z,78.06
2023-01-10T01:08:04.423Z,77.88
2023-01-10T01:10:36.936Z,77.67
2023-01-10T01:13:13.549Z,77.63
2023-01-10T01:15:46.111Z,77.86
2023-01-10T01:18:20.882Z,77.87
2023-01-10T01:20:56.646Z,77.94
2023-01-10T01:23:29.566Z,77.93
2023-01-10T01:26:06.348Z,77.88
2023-01-10T01:28:39.188Z,78.17
2023-01-10T01:31:13.382Z,78.35
2023-01-10T01:33:46.519Z,78.21
2023-01-10T01:36:19.049Z,78.22
2023-01-10T01:38:51.515Z,77.99
2023-01-10T01:41:41.741Z,78.08
2023-01-10T01:44:18.484Z,77.98
2023-01-10T01:46:57.779Z,78.08
2023-01-10T01:49:32.831Z,78.08
2023-01-10T01:52:09.016Z,77.91
2023-01-10T01:54:41.371Z,77.92
2023-01-10T01:57:16.223Z,77.89
2023-01-10T01:59:52.791Z,78.01
2023-01-10T02:02:30.013Z,77.96
2023-01-10T02:05:06.984Z,77.85
2023-01-10T02:07:42.358Z,77.79
2023-01-10T02:10:18.852Z,77.79
2023-01-10T02:12:53.558Z,77.59
2023-01-10T02:15:24.279Z,77.56
2023-01-10T02:17:58.730Z,77.62
2023-01-10T02:20:34.215Z,77.73
2023-01-10T02:23:44.396Z,77.66
2023-01-10T02:26:43.341Z,77.59
2023-01-10T02:29:51.234Z,77.46
2023-01-10T02:32:48.008Z,77.40
2023-01-10T02:35:47.148Z,77.53
2023-01-10T02:38:29.881Z,77.50
2023-01-10T02:41:12.088Z,77.36
2023-01-10T02:43:51.913Z,77.27
2023-01-10T02:46:28.189Z,77.28
2023-01-10T02:49:00.857Z,77.31
2023-01-10T02:51:34.419Z,77.18
2023-01-10T02:54:13.238Z,76.89
2023-01-10T02:57:11.106Z,76.56
2023-01-10T03:00:15.727Z,76.45
2023-01-10T03:03:10.443Z,76.40
2023-01-10T03:05:56.675Z,76.18
2023-01-10T03:08:34.816Z,75.94
2023-01-10T03:11:09.883Z,75.91
2023-01-10T03:13:49.396Z,75.77
2023-01-10T03:16:26.703Z,75.60
2023-01-10T03:19:04.595Z,75.47
2023-01-10T03:21:38.741Z,75.62
2023-01-10T03:24:18.440Z,75.64
2023-01-10T03:26:58.377Z,75.50
2023-01-10T03:29:35.339Z,75.48
2023-01-10T03:32:11.976Z,75.48
2023-01-10T03:34:45.319Z,75.63
2023-01-10T03:37:26.324Z,75.82
2023-01-10T03:40:06.851Z,75.95
2023-01-10T03:43:06.568Z,76.27
2023-01-10T03:45:46.458Z,76.32
2023-01-10T03:48:21.234Z,76.23
2023-01-10T03:50:55.054Z,76.23
2023-01-10T03:53:27.971Z,76.21
2023-01-10T03:56:01.073Z,76.22
2023-01-10T03:58:33.791Z,76.19
2023-01-10T04:01:07.061Z,76.20
2023-01-10T04:03:39.617Z,76.07
2023-01-10T04:06:12.378Z,76.04
2023-01-10T04:08:45.069Z,76.08
2023-01-10T04:11:17.403Z,76.11
2023-01-10T04:13:50.037Z,76.14
2023-01-10T04:16:22.794Z,76.37
2023-01-10T04:18:55.521Z,76.53
2023-01-10T04:21:28.050Z,76.38
2023-01-10T04:24:00.764Z,76.44
2023-01-10T04:26:33.069Z,76.47
2023-01-10T04:29:06.761Z,76.55
2023-01-10T04:31:40.093Z,76.80
2023-01-10T04:34:12.695Z,76.58
2023-01-10T04:36:45.785Z,76.57
2023-01-10T04:39:18.749Z,76.80
2023-01-10T04:41:51.089Z,76.76
2023-01-10T04:44:23.860Z,76.92
2023-01-10T04:46:56.300Z,77.24
2023-01-10T04:49:28.865Z,77.31
2023-01-10T04:52:01.556Z,77.08
2023-01-10T04:54:33.965Z,76.92
2023-01-10T04:57:06.774Z,77.27
2023-01-10T04:59:39.801Z,77.74
2023-01-10T05:02:12.331Z,77.68
2023-01-10T05:04:44.824Z,77.66
2023-01-10T05:07:17.577Z,77.92
2023-01-10T05:09:50.720Z,77.67
2023-01-10T05:12:23.771Z,77.56
2023-01-10T05:14:56.193Z,77.16
2023-01-10T05:17:28.560Z,77.58
2023-01-10T05:20:01.091Z,77.72
2023-01-10T05:22:34.127Z,77.63
2023-01-10T05:25:07.279Z,77.51
2023-01-10T05:27:41.417Z,77.59
2023-01-10T05:30:15.781Z,77.30
2023-01-10T05:32:48.361Z,77.31
2023-01-10T05:50:57.833Z,77.43
2023-01-10T05:53:30.602Z,77.37
2023-01-10T05:56:04.605Z,77.52
2023-01-10T05:58:37.301Z,77.45
2023-01-10T06:01:10.222Z,77.48
2023-01-10T06:03:42.700Z,77.69
2023-01-10T06:06:15.111Z,77.74
2023-01-10T06:08:47.487Z,78.07
2023-01-10T06:11:23.423Z,78.16
2023-01-10T06:13:56.065Z,78.12
2023-01-10T06:16:28.422Z,78.00
2023-01-10T06:19:00.826Z,78.12
2023-01-10T06:21:37.863Z,78.07
2023-01-10T06:24:11.790Z,77.99
2023-01-10T06:26:44.255Z,78.36
2023-01-10T06:29:18.649Z,78.46
2023-01-10T06:31:53.971Z,78.88
2023-01-10T06:34:26.615Z,78.29
2023-01-10T06:37:03.835Z,78.19
2023-01-10T06:39:36.164Z,78.53
2023-01-10T06:42:08.590Z,78.46
2023-01-10T06:44:40.967Z,78.73
2023-01-10T06:47:13.427Z,78.16
2023-01-10T06:49:45.833Z,78.08
2023-01-10T06:52:18.532Z,78.13
2023-01-10T06:54:53.550Z,78.46
2023-01-10T06:57:28.557Z,78.97
2023-01-10T07:00:01.052Z,78.78
2023-01-10T07:02:33.594Z,78.97
2023-01-10T07:05:07.007Z,78.58
2023-01-10T07:07:39.559Z,78.73
2023-01-10T07:10:14.315Z,78.55
2023-01-10T07:12:46.844Z,78.14
2023-01-10T07:15:19.371Z,78.33
2023-01-10T07:17:52.011Z,78.57
2023-01-10T07:20:27.249Z,78.04
2023-01-10T07:23:01.553Z,78.47
2023-01-10T07:25:34.192Z,78.02
2023-01-10T07:28:07.857Z,77.61
2023-01-10T07:30:40.509Z,77.84
2023-01-10T07:33:12.892Z,78.21
2023-01-10T07:35:45.197Z,78.20
2023-01-10T07:38:17.935Z,78.01
2023-01-10T07:40:50.347Z,77.78
2023-01-10T07:43:22.693Z,77.78
2023-01-10T07:45:55.704Z,78.35
2023-01-10T07:48:28.390Z,78.42
2023-01-10T07:51:02.579Z,78.79
2023-01-10T07:53:35.355Z,78.91
2023-01-10T07:56:08.996Z,79.02
2023-01-10T07:58:42.643Z,79.01
2023-01-10T08:01:16.014Z,79.20
2023-01-10T08:03:48.578Z,79.19
2023-01-10T08:06:21.197Z,78.88
2023-01-10T08:08:53.608Z,78.45
2023-01-10T08:11:26.164Z,78.63
2023-01-10T08:13:58.636Z,79.16
2023-01-10T08:16:30.951Z,79.40
2023-01-10T08:19:03.373Z,79.58
2023-01-10T08:21:36.096Z,79.66
2023-01-10T08:24:09.655Z,79.74
2023-01-10T08:26:42.251Z,79.71
2023-01-10T08:29:15.930Z,79.99
2023-01-10T08:31:48.243Z,79.87
2023-01-10T08:34:20.671Z,79.74
2023-01-10T08:36:55.250Z,80.32
2023-01-10T08:39:30.608Z,79.58
2023-01-10T08:42:03.411Z,80.00
2023-01-10T08:44:35.887Z,80.23
2023-01-10T08:47:08.870Z,80.18
2023-01-10T08:49:41.342Z,80.04
2023-01-10T08:52:13.986Z,80.23
2023-01-10T08:54:46.833Z,79.81
2023-01-10T08:57:19.469Z,79.83
2023-01-10T08:59:51.874Z,80.06
2023-01-10T09:02:24.545Z,80.36
2023-01-10T09:04:57.423Z,80.36
2023-01-10T09:07:29.970Z,80.40
2023-01-10T09:10:02.530Z,80.35
2023-01-10T09:12:52.548Z,80.65
2023-01-10T09:15:26.057Z,80.58
2023-01-10T09:20:20.770Z,80.86
2023-01-10T09:22:53.242Z,80.91
2023-01-10T09:25:26.640Z,81.22
2023-01-10T09:28:03.865Z,80.89
2023-01-10T09:30:36.593Z,80.64
2023-01-10T09:33:09.669Z,80.58
2023-01-10T09:35:43.564Z,81.15
2023-01-10T09:38:18.956Z,81.03
2023-01-10T09:41:05.316Z,81.20
2023-01-10T09:43:48.108Z,81.46
2023-01-10T09:46:29.735Z,81.49
2023-01-10T09:49:08.323Z,81.19
2023-01-10T09:51:44.663Z,80.93
2023-01-10T09:54:20.629Z,80.99
2023-01-10T09:56:55.175Z,81.12
2023-01-10T09:59:27.233Z,80.78
2023-01-10T10:02:08.333Z,80.91
2023-01-10T10:04:42.585Z,80.75
2023-01-10T10:07:17.972Z,81.23
2023-01-10T10:09:50.397Z,81.34
2023-01-10T10:12:33.374Z,81.40
2023-01-10T10:15:19.850Z,81.05
2023-01-10T10:18:04.189Z,81.11
2023-01-10T10:20:48.414Z,81.42
2023-01-10T10:23:47.603Z,81.61
2023-01-10T10:26:29.062Z,81.28
2023-01-10T10:29:23.656Z,81.26
2023-01-10T10:32:36.480Z,81.22
2023-01-10T10:35:14.938Z,81.43
2023-01-10T10:37:50.086Z,81.40
2023-01-10T10:40:33.831Z,81.36
2023-01-10T10:43:15.345Z,81.58
2023-01-10T10:45:52.115Z,81.68
2023-01-10T10:48:29.707Z,81.33
2023-01-10T10:51:13.838Z,81.64
2023-01-10T10:53:46.483Z,81.61
2023-01-10T10:56:22.893Z,81.30
2023-01-10T10:59:00.119Z,81.25
2023-01-10T11:01:32.957Z,81.55
2023-01-10T11:04:10.677Z,81.58
2023-01-10T11:06:48.992Z,81.42
2023-01-10T11:09:25.954Z,81.53
2023-01-10T11:11:59.398Z,81.15
2023-01-10T11:14:49.761Z,81.63
2023-01-10T11:17:25.701Z,81.18
2023-01-10T11:20:03.044Z,80.97
2023-01-10T11:22:41.197Z,80.70
2023-01-10T11:25:20.178Z,80.21
2023-01-10T11:27:55.468Z,79.87
2023-01-10T11:30:31.543Z,79.88
2023-01-10T11:33:07.207Z,79.82
2023-01-10T11:35:57.425Z,80.30
2023-01-10T11:38:31.235Z,79.98
2023-01-10T11:41:06.137Z,80.18
2023-01-10T11:43:40.578Z,79.78
2023-01-10T11:46:21.364Z,79.89
2023-01-10T11:49:06.756Z,80.29
2023-01-10T11:51:42.084Z,80.07
2023-01-10T11:54:18.672Z,79.34
2023-01-10T11:56:58.572Z,78.83
2023-01-10T11:59:32.939Z,79.13
2023-01-10T12:02:13.552Z,78.98
2023-01-10T12:04:47.958Z,78.67
2023-01-10T12:07:20.863Z,78.61
2023-01-10T12:10:00.502Z,78.61
2023-01-10T12:12:35.743Z,78.83
2023-01-10T12:15:26.817Z,79.01
2023-01-10T12:18:01.194Z,79.14
2023-01-10T12:20:42.369Z,79.04
2023-01-10T12:23:19.542Z,79.04
2023-01-10T12:26:00.312Z,78.96
2023-01-10T12:28:42.594Z,78.97
2023-01-10T12:31:18.731Z,78.89
2023-01-10T12:33:56.693Z,78.59
2023-01-10T12:36:44.857Z,78.48
2023-01-10T12:39:23.782Z,78.64
2023-01-10T12:42:22.303Z,78.32
2023-01-10T12:45:01.416Z,77.35
2023-01-10T12:47:44.535Z,77.36
2023-01-10T12:50:22.972Z,77.22
2023-01-10T12:53:01.161Z,77.20
2023-01-10T12:55:40.877Z,76.73
2023-01-10T12:58:22.176Z,76.54
2023-01-10T13:00:59.573Z,75.85
2023-01-10T13:03:35.021Z,75.49
2023-01-10T13:06:07.922Z,75.82
2023-01-10T13:08:43.803Z,76.04
2023-01-10T13:11:21.728Z,75.90
2023-01-10T13:14:00.087Z,75.81
2023-01-10T13:16:41.672Z,75.98
2023-01-10T13:19:29.041Z,76.08
2023-01-10T13:22:23.154Z,76.24
2023-01-10T13:25:03.424Z,76.20
2023-01-10T13:27:36.824Z,76.66
2023-01-10T13:30:29.299Z,76.66
2023-01-10T13:33:06.930Z,76.94
2023-01-10T13:35:45.377Z,76.97
2023-01-10T13:38:23.631Z,76.85
2023-01-10T13:41:06.243Z,76.79
2023-01-10T13:44:00.725Z,76.56
2023-01-10T13:46:55.445Z,76.19
2023-01-10T13:49:45.811Z,76.71
2023-01-10T13:52:37.889Z,77.31
2023-01-10T13:55:29.828Z,77.47
2023-01-10T13:58:03.648Z,77.55
2023-01-10T14:01:08.795Z,77.65
2023-01-10T14:03:51.012Z,78.03
2023-01-10T14:06:42.019Z,77.71
2023-01-10T14:09:36.581Z,77.77
2023-01-10T14:12:18.885Z,77.76
2023-01-10T14:14:58.132Z,78.11
2023-01-10T14:17:33.619Z,78.06
2023-01-10T14:20:23.150Z,78.26
2023-01-10T14:23:06.341Z,78.87
2023-01-10T14:25:39.754Z,79.27
2023-01-10T14:28:24.048Z,79.50
2023-01-10T14:31:04.996Z,79.45
2023-01-10T14:33:39.188Z,79.33
2023-01-10T14:36:19.679Z,79.19
2023-01-10T14:38:56.890Z,78.90
2023-01-10T14:41:35.710Z,78.56
2023-01-10T14:44:15.191Z,78.68
2023-01-10T14:46:50.646Z,79.30
2023-01-10T14:49:29.786Z,79.53
2023-01-10T14:52:19.418Z,79.26
2023-01-10T14:55:04.199Z,79.74
2023-01-10T14:57:36.677Z,79.48
2023-01-10T15:00:16.761Z,79.62
2023-01-10T15:02:51.197Z,79.39
2023-01-10T15:05:27.025Z,79.46
2023-01-10T15:08:19.113Z,79.17
2023-01-10T15:10:54.049Z,79.35
2023-01-10T15:13:29.400Z,79.51
2023-01-10T15:16:03.095Z,79.87
2023-01-10T15:18:41.052Z,79.38
2023-01-10T15:21:18.404Z,79.01
2023-01-10T15:23:52.997Z,79.31
2023-01-10T15:26:33.386Z,79.28
2023-01-10T15:29:19.368Z,79.46
2023-01-10T15:31:53.382Z,79.32
2023-01-10T15:34:31.365Z,79.40
2023-01-10T15:37:05.080Z,79.29
2023-01-10T15:39:40.854Z,79.62
2023-01-10T15:42:14.341Z,79.17
2023-01-10T15:44:52.543Z,79.28
2023-01-10T15:47:55.297Z,79.35
2023-01-10T15:50:32.283Z,78.88
2023-01-10T15:53:08.686Z,78.84
2023-01-10T15:55:52.310Z,79.02
2023-01-10T15:58:30.221Z,79.18
2023-01-10T16:01:04.643Z,79.57
2023-01-10T16:03:39.922Z,80.10
2023-01-10T16:06:23.205Z,79.64
2023-01-10T16:08:58.377Z,79.21
2023-01-10T16:11:55.955Z,78.97
2023-01-10T16:14:28.484Z,78.80
2023-01-10T16:17:00.957Z,78.55
2023-01-10T16:19:37.161Z,78.35
2023-01-10T16:22:17.951Z,78.40
2023-01-10T16:24:52.903Z,78.12
2023-01-10T16:27:25.337Z,78.07
2023-01-10T16:29:58.120Z,77.94
2023-01-10T16:32:30.774Z,77.97
2023-01-10T16:35:03.401Z,78.11
2023-01-10T16:37:35.711Z,78.23
2023-01-10T16:40:19.921Z,78.34
2023-01-10T16:43:09.862Z,78.42
2023-01-10T16:45:42.581Z,78.66
2023-01-10T16:48:15.289Z,78.49
2023-01-10T16:50:49.987Z,78.48
2023-01-10T16:53:23.192Z,78.37
2023-01-10T16:55:56.191Z,78.29
2023-01-10T16:58:28.576Z,78.31
2023-01-10T17:01:02.541Z,78.46
2023-01-10T17:03:38.585Z,78.54
2023-01-10T17:06:12.842Z,78.74
2023-01-10T17:08:45.916Z,78.86
2023-01-10T17:11:34.080Z,78.83
2023-01-10T17:14:07.415Z,78.25
2023-01-10T17:16:40.290Z,78.09
2023-01-10T17:19:12.738Z,78.43
2023-01-10T17:21:45.519Z,78.42
2023-01-10T17:24:18.232Z,78.34
2023-01-10T17:26:50.810Z,78.10
2023-01-10T17:29:23.536Z,78.18
2023-01-10T17:31:56.474Z,78.51
2023-01-10T17:34:31.153Z,78.92
2023-01-10T17:37:03.811Z,79.32
2023-01-10T17:39:37.949Z,79.20
2023-01-10T17:42:12.979Z,79.36
2023-01-10T17:44:45.497Z,79.82
2023-01-10T17:47:30.991Z,79.91
2023-01-10T17:50:04.027Z,79.58
2023-01-10T17:52:36.681Z,79.32
2023-01-10T17:55:10.908Z,79.04
2023-01-10T17:58:02.810Z,78.59
2023-01-10T18:01:01.597Z,77.94
2023-01-10T18:03:40.870Z,77.72
2023-01-10T18:06:33.663Z,77.74
2023-01-10T18:09:09.141Z,77.83
2023-01-10T18:11:41.919Z,78.03
2023-01-10T18:14:32.396Z,77.94
2023-01-10T18:17:05.088Z,78.15
2023-01-10T18:19:38.482Z,78.04
2023-01-10T18:22:29.100Z,78.20
2023-01-10T18:25:02.076Z,78.20
2023-01-10T18:27:34.883Z,78.43
2023-01-10T18:30:09.223Z,78.59
2023-01-10T18:32:41.823Z,78.45
2023-01-10T18:35:14.436Z,78.59
2023-01-10T18:37:52.037Z,78.59
2023-01-10T18:40:24.663Z,78.34
2023-01-10T18:43:02.991Z,78.25
2023-01-10T18:45:40.366Z,78.33
2023-01-10T18:48:49.588Z,78.33
2023-01-10T18:52:06.938Z,78.68
2023-01-10T18:54:39.328Z,78.91
2023-01-10T18:57:16.313Z,78.97
2023-01-10T18:59:49.268Z,79.09
2023-01-10T19:02:36.938Z,79.03
2023-01-10T19:05:59.216Z,78.92
2023-01-10T19:09:15.454Z,78.88
2023-01-10T19:12:02.511Z,79.12
2023-01-10T19:15:04.014Z,78.95
2023-01-10T19:17:49.320Z,78.89
2023-01-10T19:20:22.161Z,78.73
2023-01-10T19:22:54.616Z,78.65
2023-01-10T19:25:30.109Z,78.67
2023-01-10T19:28:04.214Z,78.80
2023-01-10T19:30:38.536Z,78.89
2023-01-10T19:33:11.159Z,78.66
2023-01-10T19:35:45.967Z,78.37
2023-01-10T19:38:18.508Z,78.22
2023-01-10T19:40:56.576Z,78.10
2023-01-10T19:43:29.039Z,77.78
2023-01-10T19:46:08.009Z,77.81
2023-01-10T19:48:50.984Z,77.92
2023-01-10T19:51:23.597Z,78.08
2023-01-10T19:53:56.196Z,78.26
2023-01-10T19:56:28.808Z,78.30
2023-01-10T19:59:01.938Z,78.20
2023-01-10T20:01:35.070Z,78.22
2023-01-10T20:04:08.313Z,78.15
2023-01-10T20:06:42.341Z,78.09
2023-01-10T20:09:15.590Z,78.09
2023-01-10T20:11:48.211Z,77.91
2023-01-10T20:14:22.588Z,77.86
2023-01-10T20:16:55.399Z,77.92
2023-01-10T20:19:28.234Z,77.74
2023-01-10T20:22:00.811Z,77.81
2023-01-10T20:24:33.272Z,78.35
2023-01-10T20:27:09.468Z,78.58
2023-01-10T20:29:45.669Z,78.56
2023-01-10T20:32:19.724Z,78.19
2023-01-10T20:34:52.446Z,77.85
2023-01-10T20:37:25.132Z,77.72
2023-01-10T20:39:58.322Z,77.81
2023-01-10T20:42:32.663Z,77.75
2023-01-10T20:45:05.166Z,77.78
2023-01-10T20:47:37.684Z,77.70
2023-01-10T20:50:12.156Z,77.68
2023-01-10T20:52:44.919Z,77.76
2023-01-10T20:55:19.895Z,77.74
2023-01-10T20:57:52.761Z,77.67
2023-01-10T21:00:25.801Z,77.63
2023-01-10T21:02:59.091Z,77.55
2023-01-10T21:05:32.434Z,77.89
2023-01-10T21:08:05.104Z,78.19
2023-01-10T21:10:37.795Z,78.14
2023-01-10T21:13:10.641Z,78.03
2023-01-10T21:15:43.745Z,77.78
2023-01-10T21:18:17.835Z,77.76
2023-01-10T21:20:50.328Z,77.75
2023-01-10T21:23:24.457Z,77.83
2023-01-10T21:26:01.422Z,77.94
2023-01-10T21:28:37.801Z,77.82
2023-01-10T21:31:12.906Z,77.78
2023-01-10T21:33:46.125Z,77.76
2023-01-10T21:36:19.162Z,77.81
2023-01-10T21:38:52.870Z,77.81
2023-01-10T21:41:42.769Z,77.79
2023-01-10T21:44:15.342Z,78.06
2023-01-10T21:46:49.051Z,78.28
2023-01-10T21:49:22.425Z,78.17
2023-01-10T21:51:56.490Z,78.25
2023-01-10T21:54:28.958Z,78.39
2023-01-10T21:57:01.612Z,78.31
2023-01-10T21:59:37.747Z,78.34
2023-01-10T22:02:15.431Z,78.29
2023-01-10T22:04:50.904Z,78.13
2023-01-10T22:07:24.136Z,77.97
2023-01-10T22:09:57.196Z,77.95
2023-01-10T22:12:31.188Z,78.08
2023-01-10T22:15:04.686Z,78.12
2023-01-10T22:17:37.391Z,78.21
2023-01-10T22:20:16.911Z,78.37
2023-01-10T22:22:49.612Z,78.34
2023-01-10T22:25:22.429Z,78.40
2023-01-10T22:27:54.872Z,78.44
2023-01-10T22:30:27.667Z,78.47
2023-01-10T22:33:00.666Z,78.23
2023-01-10T22:35:33.543Z,77.88
2023-01-10T22:38:08.362Z,77.61
2023-01-10T22:40:41.784Z,77.57
2023-01-10T22:43:14.571Z,77.55
2023-01-10T22:45:47.303Z,77.57
2023-01-10T22:48:19.847Z,77.59
2023-01-10T22:50:53.379Z,77.48
2023-01-10T22:53:29.043Z,77.07
2023-01-10T22:56:04.454Z,76.95
2023-01-10T22:58:36.948Z,76.94
2023-01-10T23:01:10.040Z,76.84
2023-01-10T23:03:42.695Z,76.68
2023-01-10T23:06:20.312Z,76.65
2023-01-10T23:08:52.867Z,76.76
2023-01-10T23:11:25.780Z,76.76
2023-01-10T23:13:59.011Z,76.39
2023-01-10T23:16:32.858Z,76.17
2023-01-10T23:19:05.888Z,76.00
2023-01-10T23:21:38.344Z,75.76
2023-01-10T23:24:14.928Z,75.72
2023-01-10T23:26:47.423Z,75.59
2023-01-10T23:29:20.037Z,75.51
2023-01-10T23:31:52.581Z,75.22
2023-01-10T23:34:25.574Z,75.03
2023-01-10T23:36:58.329Z,75.08
2023-01-10T23:39:30.722Z,75.51
2023-01-10T23:42:03.167Z,75.65
2023-01-10T23:44:35.793Z,75.73
2023-01-10T23:47:08.746Z,75.63
2023-01-10T23:49:41.317Z,75.43
2023-01-10T23:52:15.006Z,75.18
2023-01-10T23:54:47.335Z,75.22
2023-01-10T23:57:19.970Z,75.33
2023-01-10T23:59:52.383Z,75.03
